Flight Track Log - Related Links

Times and Time Zones

All times are in EDT time to prevent confusion due to time zone crossing. See the D-QFJG flight status page for this flight to view local times or setup timezone preferences in your user account.

Time Position Orientation Groundspeed Altitude Reporting Facility
EDT Latitude Longitude Course Direction KTS MPH feet Rate Location/Type
Tue 02:48:00 AM -18.6191 176.3416 230° Southwest  Level Estimated
Tue 02:49:00 AM -18.6908 176.2493 231° Southwest  Level Estimated
Tue 02:50:00 AM -18.7626 176.1569 231° Southwest  Level Estimated
Tue 02:51:00 AM -18.8342 176.0644 231° Southwest  Level Estimated
Tue 02:52:00 AM -18.9058 175.9718 231° Southwest  Level Estimated
Tue 02:53:00 AM -18.9725 175.8855 231° Southwest  Level Estimated
Tue 02:54:00 AM -19.0391 175.7992 231° Southwest  Level Estimated
Tue 02:55:00 AM -19.1057 175.7127 231° Southwest  Level Estimated
Tue 02:56:00 AM -19.1723 175.6262 231° Southwest  Level Estimated
Tue 02:57:00 AM -19.2388 175.5396 231° Southwest  Level Estimated
Tue 02:58:00 AM -19.3052 175.4530 231° Southwest  Level Estimated
Tue 02:59:00 AM -19.3717 175.3663 231° Southwest  Level Estimated
Tue 03:00:00 AM -19.4380 175.2795 231° Southwest  Level Estimated
Tue 03:01:00 AM -19.5044 175.1926 231° Southwest  Level Estimated
Tue 03:02:00 AM -19.5707 175.1057 231° Southwest  Level Estimated
Tue 03:03:00 AM -19.6369 175.0187 231° Southwest  Level Estimated
Tue 03:04:00 AM -19.7032 174.9316 231° Southwest  Level Estimated
Tue 03:05:00 AM -19.7693 174.8445 231° Southwest  Level Estimated
Tue 03:06:00 AM -19.8355 174.7572 231° Southwest  Level Estimated
Tue 03:07:00 AM -19.9016 174.6700 231° Southwest  Level Estimated
Tue 03:08:00 AM -19.9676 174.5826 231° Southwest  Level Estimated
Tue 03:09:00 AM -20.0336 174.4952 231° Southwest  Level Estimated
Tue 03:10:00 AM -20.0996 174.4077 231° Southwest  Level Estimated
Tue 03:11:00 AM -20.1655 174.3201 231° Southwest  Level Estimated
Tue 03:12:00 AM -20.2314 174.2324 231° Southwest  Level Estimated
Tue 03:13:00 AM -20.2972 174.1447 231° Southwest  Level Estimated
Tue 03:14:00 AM -20.3630 174.0569 231° Southwest  Level Estimated
Tue 03:15:00 AM -20.4287 173.9690 231° Southwest  Level Estimated
Tue 03:16:00 AM -20.4944 173.8810 231° Southwest  Level Estimated
Tue 03:17:00 AM -20.5601 173.7930 231° Southwest  Level Estimated
Tue 03:18:00 AM -20.6257 173.7049 231° Southwest  Level Estimated
Tue 03:19:00 AM -20.6913 173.6167 232° Southwest  Level Estimated
Tue 03:20:00 AM -20.7568 173.5284 232° Southwest  Level Estimated
Tue 03:21:00 AM -20.8223 173.4401 232° Southwest  Level Estimated
Tue 03:22:00 AM -20.8877 173.3517 232° Southwest  Level Estimated
Tue 03:23:00 AM -20.9531 173.2632 232° Southwest  Level Estimated
Tue 03:24:00 AM -21.0184 173.1746 232° Southwest  Level Estimated
Tue 03:25:00 AM -21.0837 173.0860 232° Southwest  Level Estimated
Tue 03:26:00 AM -21.1490 172.9973 232° Southwest  Level Estimated
Tue 03:27:00 AM -21.2142 172.9085 232° Southwest  Level Estimated
Tue 03:28:00 AM -21.2793 172.8196 232° Southwest  Level Estimated
Tue 03:29:00 AM -21.3444 172.7306 232° Southwest  Level Estimated
Tue 03:30:00 AM -21.4095 172.6416 232° Southwest  Level Estimated
Tue 03:31:00 AM -21.4745 172.5525 232° Southwest  Level Estimated
Tue 03:32:00 AM -21.5395 172.4633 232° Southwest  Level Estimated
Tue 03:33:00 AM -21.6044 172.3740 232° Southwest  Level Estimated
Tue 03:34:00 AM -21.6693 172.2846 232° Southwest  Level Estimated
Tue 03:35:00 AM -21.7341 172.1952 232° Southwest  Level Estimated
Tue 03:36:00 AM -21.7989 172.1057 232° Southwest  Level Estimated
Tue 03:37:00 AM -21.8636 172.0161 232° Southwest  Level Estimated
Tue 03:38:00 AM -21.9283 171.9264 232° Southwest  Level Estimated
Tue 03:39:00 AM -21.9929 171.8366 232° Southwest  Level Estimated
Tue 03:40:00 AM -22.0575 171.7468 232° Southwest  Level Estimated
Tue 03:41:00 AM -22.1220 171.6569 232° Southwest  Level Estimated
Tue 03:42:00 AM -22.1865 171.5669 232° Southwest  Level Estimated
Tue 03:43:00 AM -22.2509 171.4768 232° Southwest  Level Estimated
Tue 03:44:00 AM -22.3153 171.3866 232° Southwest  Level Estimated
Tue 03:45:00 AM -22.3797 171.2963 232° Southwest  Level Estimated
Tue 03:46:00 AM -22.4439 171.2060 232° Southwest  Level Estimated
Tue 03:47:00 AM -22.5082 171.1156 232° Southwest  Level Estimated
Tue 03:48:00 AM -22.5723 171.0251 232° Southwest  Level Estimated
Tue 03:49:00 AM -22.6365 170.9345 232° Southwest  Level Estimated
Tue 03:50:00 AM -22.7006 170.8438 233° Southwest  Level Estimated
Tue 03:51:00 AM -22.7646 170.7530 233° Southwest  Level Estimated
Tue 03:52:00 AM -22.8286 170.6622 233° Southwest  Level Estimated
Tue 03:53:00 AM -22.8925 170.5713 233° Southwest  Level Estimated
Tue 03:54:00 AM -22.9564 170.4802 233° Southwest  Level Estimated
Tue 03:55:00 AM -23.0202 170.3891 233° Southwest  Level Estimated
Tue 03:56:00 AM -23.0840 170.2979 233° Southwest  Level Estimated
Tue 03:57:00 AM -23.1477 170.2067 233° Southwest  Level Estimated
Tue 03:58:00 AM -23.2113 170.1153 233° Southwest  Level Estimated
Tue 03:59:00 AM -23.2750 170.0239 233° Southwest  Level Estimated
Tue 04:00:00 AM -23.3385 169.9323 233° Southwest  Level Estimated
Tue 04:01:00 AM -23.4020 169.8407 233° Southwest  Level Estimated
Tue 04:02:00 AM -23.4655 169.7490 233° Southwest  Level Estimated
Tue 04:03:00 AM -23.5289 169.6572 233° Southwest  Level Estimated
Tue 04:04:00 AM -23.5922 169.5653 233° Southwest  Level Estimated
Tue 04:05:00 AM -23.6555 169.4733 233° Southwest  Level Estimated
Tue 04:06:00 AM -23.7188 169.3813 233° Southwest  Level Estimated
Tue 04:07:00 AM -23.7819 169.2891 233° Southwest  Level Estimated
Tue 04:08:00 AM -23.8451 169.1968 233° Southwest  Level Estimated
Tue 04:09:00 AM -23.9081 169.1045 233° Southwest  Level Estimated
Tue 04:10:00 AM -23.9712 169.0121 233° Southwest  Level Estimated
Tue 04:11:00 AM -24.0341 168.9196 233° Southwest  Level Estimated
Tue 04:12:00 AM -24.0970 168.8269 233° Southwest  Level Estimated
Tue 04:13:00 AM -24.1599 168.7342 233° Southwest  Level Estimated
Tue 04:14:00 AM -24.2227 168.6414 233° Southwest  Level Estimated
Tue 04:15:00 AM -24.2854 168.5486 233° Southwest  Level Estimated
Tue 04:16:00 AM -24.3481 168.4556 233° Southwest  Level Estimated
Tue 04:17:00 AM -24.4107 168.3625 234° Southwest  Level Estimated
Tue 04:18:00 AM -24.4733 168.2694 234° Southwest  Level Estimated
Tue 04:19:00 AM -24.5358 168.1761 234° Southwest  Level Estimated
Tue 04:20:00 AM -24.5983 168.0828 234° Southwest  Level Estimated
Tue 04:21:00 AM -24.6607 167.9893 234° Southwest  Level Estimated
Tue 04:22:00 AM -24.7230 167.8958 234° Southwest  Level Estimated
Tue 04:23:00 AM -24.7853 167.8022 234° Southwest  Level Estimated
Tue 04:24:00 AM -24.8475 167.7085 234° Southwest  Level Estimated
Tue 04:25:00 AM -24.9097 167.6147 234° Southwest  Level Estimated
Tue 04:26:00 AM -24.9718 167.5208 234° Southwest  Level Estimated
Tue 04:27:00 AM -25.0338 167.4268 234° Southwest  Level Estimated
Tue 04:28:00 AM -25.0958 167.3327 234° Southwest  Level Estimated
Tue 04:29:00 AM -25.1578 167.2385 234° Southwest  Level Estimated
Tue 04:30:00 AM -25.2196 167.1442 234° Southwest  Level Estimated
Tue 04:31:00 AM -25.2814 167.0498 234° Southwest  Level Estimated
Tue 04:32:00 AM -25.3432 166.9553 234° Southwest  Level Estimated
Tue 04:33:00 AM -25.4049 166.8607 234° Southwest  Level Estimated
Tue 04:34:00 AM -25.4665 166.7661 234° Southwest  Level Estimated
Tue 04:35:00 AM -25.5281 166.6713 234° Southwest  Level Estimated
Tue 04:36:00 AM -25.5896 166.5764 234° Southwest  Level Estimated
Tue 04:37:00 AM -25.6510 166.4815 234° Southwest  Level Estimated
Tue 04:38:00 AM -25.7124 166.3864 234° Southwest  Level Estimated
Tue 04:39:00 AM -25.7737 166.2913 234° Southwest  Level Estimated
Tue 04:40:00 AM -25.8350 166.1960 234° Southwest  Level Estimated
Tue 04:41:00 AM -25.8962 166.1006 234° Southwest  Level Estimated
Tue 04:42:00 AM -25.9573 166.0052 235° Southwest  Level Estimated
Tue 04:43:00 AM -26.0184 165.9096 235° Southwest  Level Estimated
Tue 04:44:00 AM -26.0794 165.8140 235° Southwest  Level Estimated
Tue 04:45:00 AM -26.1404 165.7182 235° Southwest  Level Estimated
Tue 04:46:00 AM -26.2013 165.6224 235° Southwest  Level Estimated
Tue 04:47:00 AM -26.2621 165.5264 235° Southwest  Level Estimated
Tue 04:48:00 AM -26.3228 165.4304 235° Southwest  Level Estimated
Tue 04:49:00 AM -26.3835 165.3342 235° Southwest  Level Estimated
Tue 04:50:00 AM -26.4442 165.2380 235° Southwest  Level Estimated
Tue 04:51:00 AM -26.5047 165.1416 235° Southwest  Level Estimated
Tue 04:52:00 AM -26.5652 165.0452 235° Southwest  Level Estimated
Tue 04:53:00 AM -26.6256 164.9486 235° Southwest  Level Estimated
Tue 04:54:00 AM -26.6860 164.8519 235° Southwest  Level Estimated
Tue 04:55:00 AM -26.7463 164.7552 235° Southwest  Level Estimated
Tue 04:56:00 AM -26.8065 164.6583 235° Southwest  Level Estimated
Tue 04:57:00 AM -26.8667 164.5613 235° Southwest  Level Estimated
Tue 04:58:00 AM -26.9268 164.4642 235° Southwest  Level Estimated
Tue 04:59:00 AM -26.9869 164.3671 235° Southwest  Level Estimated
Tue 05:00:00 AM -27.0468 164.2698 235° Southwest  Level Estimated
Tue 05:01:00 AM -27.1067 164.1724 235° Southwest  Level Estimated
Tue 05:02:00 AM -27.1666 164.0749 235° Southwest  Level Estimated
Tue 05:03:00 AM -27.2263 163.9773 235° Southwest  Level Estimated
Tue 05:04:00 AM -27.2860 163.8796 235° Southwest  Level Estimated
Tue 05:05:00 AM -27.3457 163.7818 236° Southwest  Level Estimated
Tue 05:06:00 AM -27.4052 163.6839 236° Southwest  Level Estimated
Tue 05:07:00 AM -27.4647 163.5859 236° Southwest  Level Estimated
Tue 05:08:00 AM -27.5242 163.4878 236° Southwest  Level Estimated
Tue 05:09:00 AM -27.5835 163.3896 236° Southwest  Level Estimated
Tue 05:10:00 AM -27.6428 163.2912 236° Southwest  Level Estimated
Tue 05:11:00 AM -27.7020 163.1928 236° Southwest  Level Estimated
Tue 05:12:00 AM -27.7612 163.0942 236° Southwest  Level Estimated
Tue 05:13:00 AM -27.8203 162.9956 236° Southwest  Level Estimated
Tue 05:14:00 AM -27.8793 162.8968 236° Southwest  Level Estimated
Tue 05:15:00 AM -27.9382 162.7979 236° Southwest  Level Estimated
Tue 05:16:00 AM -27.9971 162.6990 236° Southwest  Level Estimated
Tue 05:17:00 AM -28.0559 162.5999 236° Southwest  Level Estimated
Tue 05:18:00 AM -28.1146 162.5007 236° Southwest  Level Estimated
Tue 05:19:00 AM -28.1733 162.4014 236° Southwest  Level Estimated
Tue 05:20:00 AM -28.2319 162.3020 236° Southwest  Level Estimated
Tue 05:21:00 AM -28.2904 162.2025 236° Southwest  Level Estimated
Tue 05:22:00 AM -28.3488 162.1028 236° Southwest  Level Estimated
Tue 05:23:00 AM -28.4072 162.0031 236° Southwest  Level Estimated
Tue 05:24:00 AM -28.4655 161.9032 236° Southwest  Level Estimated
Tue 05:25:00 AM -28.5237 161.8033 236° Southwest  Level Estimated
Tue 05:26:00 AM -28.5819 161.7032 236° Southwest  Level Estimated
Tue 05:27:00 AM -28.6399 161.6030 237° Southwest  Level Estimated
Tue 05:28:00 AM -28.6979 161.5027 237° Southwest  Level Estimated
Tue 05:29:00 AM -28.7559 161.4023 237° Southwest  Level Estimated
Tue 05:30:00 AM -28.8137 161.3018 237° Southwest  Level Estimated
Tue 05:31:00 AM -28.8715 161.2012 237° Southwest  Level Estimated
Tue 05:32:00 AM -28.9292 161.1005 237° Southwest  Level Estimated
Tue 05:33:00 AM -28.9868 160.9996 237° Southwest  Level Estimated
Tue 05:34:00 AM -29.0444 160.8987 237° Southwest  Level Estimated
Tue 05:35:00 AM -29.1019 160.7976 237° Southwest  Level Estimated
Tue 05:36:00 AM -29.1593 160.6964 237° Southwest  Level Estimated
Tue 05:37:00 AM -29.2166 160.5951 237° Southwest  Level Estimated
Tue 05:38:00 AM -29.2738 160.4937 237° Southwest  Level Estimated
Tue 05:39:00 AM -29.3310 160.3922 237° Southwest  Level Estimated
Tue 05:40:00 AM -29.3881 160.2905 237° Southwest  Level Estimated
Tue 05:41:00 AM -29.4451 160.1888 237° Southwest  Level Estimated
Tue 05:42:00 AM -29.5021 160.0869 237° Southwest  Level Estimated
Tue 05:43:00 AM -29.5589 159.9849 237° Southwest  Level Estimated
Tue 05:44:00 AM -29.6157 159.8828 237° Southwest  Level Estimated
Tue 05:45:00 AM -29.6724 159.7806 237° Southwest  Level Estimated
Tue 05:46:00 AM -29.7291 159.6783 237° Southwest  Level Estimated
Tue 05:47:00 AM -29.7856 159.5759 238° Southwest  Level Estimated
Tue 05:48:00 AM -29.8421 159.4733 238° Southwest  Level Estimated
Tue 05:49:00 AM -29.8985 159.3706 238° Southwest  Level Estimated
Tue 05:50:00 AM -29.9548 159.2678 238° Southwest  Level Estimated
Tue 05:51:00 AM -30.0110 159.1649 238° Southwest  Level Estimated
Tue 05:52:00 AM -30.0672 159.0619 238° Southwest  Level Estimated
Tue 05:53:00 AM -30.1232 158.9588 238° Southwest  Level Estimated
Tue 05:54:00 AM -30.1792 158.8555 238° Southwest  Level Estimated
Tue 05:55:00 AM -30.2351 158.7521 238° Southwest  Level Estimated
Tue 05:56:00 AM -30.2910 158.6486 238° Southwest  Level Estimated
Tue 05:57:00 AM -30.3467 158.5450 238° Southwest  Level Estimated
Tue 05:58:00 AM -30.4024 158.4413 238° Southwest  Level Estimated
Tue 05:59:00 AM -30.4580 158.3374 238° Southwest  Level Estimated
Tue 06:00:00 AM -30.5135 158.2335 238° Southwest  Level Estimated
Tue 06:01:00 AM -30.5689 158.1294 238° Southwest  Level Estimated
Tue 06:02:00 AM -30.6242 158.0252 238° Southwest  Level Estimated
Tue 06:03:00 AM -30.6795 157.9209 238° Southwest  Level Estimated
Tue 06:03:29 AM -32.0033 156.3016 238° Southwest 505 581 38,000  Level Aus ATC (RADAR)
Tue 06:04:19 AM -32.0622 156.2079 233° Southwest 437 503 38,000  Level Aus ATC (RADAR)
Tue 06:05:09 AM -32.1219 156.1137 233° Southwest 433 498 38,000 71 Level Aus ATC (RADAR)
Tue 06:05:44 AM -32.1636 156.0473 233° Southwest 432 497 38,100  Climbing Aus ATC (RADAR)
Tue 06:06:39 AM -32.2286 155.9429 234° Southwest 431 496 38,000  Descending Aus ATC (RADAR)
Tue 06:06:54 AM -32.2462 155.9145 234° Southwest 432 497 38,100 133 Climbing Aus ATC (RADAR)
Tue 06:07:24 AM -32.2817 155.8569 234° Southwest 432 497 38,100  Level Aus ATC (RADAR)
Tue 06:08:34 AM -32.3647 155.7234 234° Southwest 432 497 38,100  Level Aus ATC (RADAR)
Tue 06:08:49 AM -32.3828 155.6947 233° Southwest 433 498 38,100  Level Aus ATC (RADAR)
Tue 06:09:24 AM -32.4241 155.6281 234° Southwest 431 496 38,100  Level Aus ATC (RADAR)
Tue 06:10:14 AM -32.4810 155.5328 235° Southwest 426 490 38,100 -71 Level Aus ATC (RADAR)
Tue 06:10:48 AM -32.5236 155.4668 233° Southwest 432 497 38,000  Descending Aus ATC (RADAR)
Tue 06:11:43 AM -32.5874 155.3615 234° Southwest 431 496 38,100  Climbing Aus ATC (RADAR)
Tue 06:11:58 AM -32.6070 155.3327 231° Southwest 435 501 38,000 -120 Descending Aus ATC (RADAR)
Tue 06:12:33 AM -32.6481 155.2648 234° Southwest 436 502 38,000  Level Aus ATC (RADAR)
Tue 06:13:48 AM -32.7371 155.1191 234° Southwest 436 502 38,000 67 Level Aus ATC (RADAR)
Tue 06:14:03 AM -32.7538 155.0898 236° Southwest 435 501 38,100 120 Climbing Aus ATC (RADAR)
Tue 06:14:38 AM -32.7953 155.0208 234° Southwest 438 504 38,100  Level Aus ATC (RADAR)
Tue 06:15:23 AM -32.8489 154.9330 234° Southwest 441 507 38,100 -75 Level Aus ATC (RADAR)
Tue 06:15:58 AM -32.8886 154.8614 237° Southwest 446 513 38,000 -67 Descending Aus ATC (RADAR)
Tue 06:16:53 AM -32.9494 154.7494 237° Southwest 440 506 38,000  Level Aus ATC (RADAR)
Tue 06:17:28 AM -32.9880 154.6787 237° Southwest 436 502 38,000 53 Level Aus ATC (RADAR)
Tue 06:18:47 AM -33.0743 154.5155 238° Southwest 438 504 38,100 48 Climbing Aus ATC (RADAR)
Tue 06:19:33 AM -33.1230 154.4234 238° Southwest 438 504 38,100  Level Aus ATC (RADAR)
Tue 06:20:32 AM -33.1883 154.3006 238° Southwest 437 503 38,100  Level Aus ATC (RADAR)
Tue 06:21:07 AM -33.2263 154.2289 238° Southwest 439 505 38,100  Level Aus ATC (RADAR)
Tue 06:22:02 AM -33.2857 154.1151 238° Southwest 441 507 38,100  Level Aus ATC (RADAR)
Tue 06:22:40 AM -33.3275 154.0359 238° Southwest 432 497 38,100  Level Aus ATC (RADAR)
Tue 06:23:50 AM -33.4051 153.8880 238° Southwest 437 503 38,100  Level Aus ATC (RADAR)
Tue 06:24:05 AM -33.4215 153.8561 238° Southwest 436 502 38,100  Level Aus ATC (RADAR)
Tue 06:24:42 AM -33.4621 153.7775 238° Southwest 451 519 38,100  Level Aus ATC (RADAR)
Tue 06:25:40 AM -33.5261 153.6557 238° Southwest 435 501 38,100  Level Aus ATC (RADAR)
Tue 06:26:17 AM -33.5660 153.5779 238° Southwest 446 513 38,100  Level Aus ATC (RADAR)
Tue 06:27:12 AM -33.6251 153.4626 238° Southwest 443 510 38,100  Level Aus ATC (RADAR)
Tue 06:27:47 AM -33.6632 153.3894 238° Southwest 445 512 38,100 -1,421 Level Aus ATC (RADAR)
Tue 06:29:06 AM -33.7470 153.2262 238° Southwest 433 498 35,400 -2,170 Descending Aus ATC (RADAR)
Tue 06:29:21 AM -33.7626 153.1960 238° Southwest 432 497 34,700 -2,520 Descending Aus ATC (RADAR)
Tue 06:29:56 AM -33.7993 153.1243 238° Southwest 433 498 33,300 -2,133 Descending Aus ATC (RADAR)
Tue 06:30:51 AM -33.8544 153.0159 238° Southwest 417 480 31,500 -1,977 Descending Aus ATC (RADAR)
Tue 06:31:24 AM -33.8863 152.9528 239° Southwest 397 457 30,400 -1,933 Descending Aus ATC (RADAR)
Tue 06:32:21 AM -33.9402 152.8461 239° Southwest 396 456 28,600 -2,800 Descending Aus ATC (RADAR)
Tue 06:32:54 AM -33.9722 152.7829 239° Southwest 401 461 26,200 -3,537 Descending Aus ATC (RADAR)
Tue 06:33:56 AM -34.0345 152.6595 239° Southwest 418 481 23,000 -3,000 Descending Aus ATC (RADAR)
Tue 06:34:44 AM -34.0781 152.5619 242° Southwest 413 475 20,700 -2,400 Descending Aus ATC (RADAR)
Tue 06:35:36 AM -34.0708 152.4481 274° West 390 449 19,000 -2,069 Descending Aus ATC (RADAR)
Tue 06:36:11 AM -34.0640 152.3741 276° West 380 437 17,700 -1,841 Descending Aus ATC (RADAR)
Tue 06:37:04 AM -34.0537 152.2653 277° West 359 413 16,300 -1,588 Descending Aus ATC (RADAR)
Tue 06:37:19 AM -34.0502 152.2361 278° West 351 404 15,900 -1,660 Descending Aus ATC (RADAR)
Tue 06:37:51 AM -34.0446 152.1749 276° West 344 396 15,000 -1,636 Descending Aus ATC (RADAR)
Tue 06:39:09 AM -34.0308 152.0328 277° West 319 367 12,900 -1,839 Descending Aus ATC (RADAR)
Tue 06:39:55 AM -34.0227 151.9480 277° West 326 375 11,200 -1,576 Descending Aus ATC (RADAR)
Tue 06:40:48 AM -34.0132 151.8561 277° West 300 345 10,300 -1,091 Descending Aus ATC (RADAR)
Tue 06:41:23 AM -34.0076 151.7995 277° West 286 329 9,600 -1,448 Descending Aus ATC (RADAR)
Tue 06:42:15 AM -33.9993 151.7160 277° West 287 330 8,200 -1,612 Descending Aus ATC (RADAR)
Tue 06:42:30 AM -33.9967 151.6923 277° West 285 328 7,800 -1,500 Descending Aus ATC (RADAR)
Tue 06:43:03 AM -33.9914 151.6400 277° West 282 325 7,000 -1,102 Descending Aus ATC (RADAR)
Tue 06:44:08 AM -33.9811 151.5395 277° West 270 311 6,000 -750 Descending Aus ATC (RADAR)
Tue 06:44:23 AM -33.9789 151.5169 277° West 267 307 6,000  Level Aus ATC (RADAR)
Tue 06:44:55 AM -33.9733 151.4677 278° West 274 315 6,000  Level Aus ATC (RADAR)
Tue 06:45:55 AM -33.9637 151.3752 277° West 273 314 6,000  Level Aus ATC (RADAR)
Tue 06:46:28 AM -33.9576 151.3243 278° West 271 312 6,000 -133 Level Aus ATC (RADAR)
Tue 06:47:25 AM -33.8962 151.2840 331° Northwest 276 318 5,800 -800 Descending Aus ATC (RADAR)
Tue 06:47:58 AM -33.8538 151.2752 350° North 282 325 4,800 -1,486 Descending Aus ATC (RADAR)
Tue 06:49:10 AM -33.7626 151.2564 350° North 272 313 3,200 -1,172 Descending Aus ATC (RADAR)
Tue 06:49:25 AM -33.7464 151.2472 335° Northwest 259 298 3,100 -250 Descending Aus ATC (RADAR)
Tue 06:49:58 AM -33.7403 151.2025 279° West 239 275 3,000 -571 Descending Aus ATC (RADAR)
Tue 06:50:49 AM -33.7760 151.1615 224° Southwest 217 250 2,300 -628 Descending Aus ATC (RADAR)
Tue 06:51:24 AM -33.8062 151.1445 205° Southwest 202 232 2,100 -467 Descending Aus ATC (RADAR)
Tue 06:52:19 AM -33.8485 151.1508 173° South 162 186 1,600 -600 Descending Aus ATC (RADAR)
Tue 06:52:34 AM -33.8591 151.1534 168° South 155 178 1,400 -735 Descending Aus ATC (RADAR)
Tue 06:53:08 AM -33.8809 151.1593 167° South 147 169 1,000 -720 Descending Aus ATC (RADAR)
Tue 06:54:14 AM -33.9250 151.1706 168° South 146 168 200 -727 Descending Aus ATC (RADAR)

Login

Don't have an account? Register now (free) for customized features, flight alerts, and more!